This is the latest recevied weather packets stored in our database for station/object K3RUP-1. If no packets are shown the sender has not sent any weather packets the latest 1 day(s).
| Time | Temp. | Humidity | Pressure | Rain* | Wind** | Luminosity | Snow |
|---|---|---|---|---|---|---|---|
| 1778085891 | 17.22° C | 98% | 1008.7 hPa | 0 mm | - | 109 W/m² | - |
| 1778085284 | 17.22° C | 98% | 1008.6 hPa | 0 mm | - | 131 W/m² | - |
| 1778084979 | 17.78° C | 98% | 1008.5 hPa | 0 mm | - | 197 W/m² | - |
| 1778084677 | 17.78° C | 98% | 1008.4 hPa | 0 mm | - | 191 W/m² | - |
| 1778081743 | 16.67° C | 97% | 1009 hPa | 1.27 mm | - | 159 W/m² | - |
| 1778081440 | 16.67° C | 97% | 1009.3 hPa | 1.27 mm | - | 98 W/m² | - |
| 1778080533 | 16.67° C | 96% | 1009.8 hPa | 1.78 mm | - | 97 W/m² | - |
| 1778080230 | 16.67° C | 96% | 1009.7 hPa | 1.78 mm | - | 95 W/m² | - |
| 1778079926 | 16.67° C | 96% | 1009.8 hPa | 4.32 mm | - | 98 W/m² | - |
| 1778079320 | 16.67° C | 95% | 1009.8 hPa | 3.56 mm | - | 49 W/m² | - |
| 1778078714 | 16.67° C | 94% | 1010 hPa | 3.05 mm | - | 55 W/m² | - |
| 1778078109 | 16.67° C | 94% | 1009.8 hPa | 1.27 mm | - | 54 W/m² | - |
| 1778077203 | 17.22° C | 91% | 1009.5 hPa | 3.05 mm | - | 70 W/m² | - |
| 1778076900 | 17.22° C | 90% | 1009.9 hPa | 1.27 mm | - | 44 W/m² | - |
| 1778076295 | 17.78° C | 89% | 1009.8 hPa | 0 mm | - | 65 W/m² | - |
| 1778075992 | 17.78° C | 88% | 1010 hPa | 1.78 mm | - | 69 W/m² | - |
| 1778075385 | 18.33° C | 83% | 1010.1 hPa | 0 mm | - | 105 W/m² | - |
| 1778075081 | 18.33° C | 82% | 1010.3 hPa | 0 mm | - | 49 W/m² | - |
| 1778074172 | 18.33° C | 81% | 1009.6 hPa | 0 mm | - | 77 W/m² | - |
| 1778073263 | 18.89° C | 79% | 1009.5 hPa | 0 mm | - | 46 W/m² | - |
| 1778072960 | 19.44° C | 77% | 1009.6 hPa | 0 mm | - | 73 W/m² | - |
| 1778069632 | 18.89° C | 78% | 1009.9 hPa | 0 mm | - | 43 W/m² | - |
| 1778068724 | 18.89° C | 78% | 1009.7 hPa | 0 mm | - | 38 W/m² | - |
| 1778068422 | 18.89° C | 78% | 1009.7 hPa | 0 mm | - | 29 W/m² | - |
| 1778067817 | 18.89° C | 78% | 1009.5 hPa | 0 mm | - | 32 W/m² | - |
* Rain latest hour (hover to see other rain measurements)
** Current wind speed in m/s (hover to see current wind gust speed)